sensor_id;sensor_type;location;lat;lon;timestamp;temperature;humidity
65692;DHT22;52411;52.716;6.696;2023-02-19T00:01:11;9.90;99.90
65692;DHT22;52411;52.716;6.696;2023-02-19T00:03:38;10.00;99.90
65692;DHT22;52411;52.716;6.696;2023-02-19T00:06:05;9.90;99.90
65692;DHT22;52411;52.716;6.696;2023-02-19T00:08:32;9.90;99.90
65692;DHT22;52411;52.716;6.696;2023-02-19T00:11:06;9.90;99.90
65692;DHT22;52411;52.716;6.696;2023-02-19T00:13:40;9.90;99.90
65692;DHT22;52411;52.716;6.696;2023-02-19T00:18:52;9.90;99.90
65692;DHT22;52411;52.716;6.696;2023-02-19T00:21:19;10.00;99.90
65692;DHT22;52411;52.716;6.696;2023-02-19T00:23:55;10.00;99.90
65692;DHT22;52411;52.716;6.696;2023-02-19T00:26:21;9.90;99.90
65692;DHT22;52411;52.716;6.696;2023-02-19T00:28:47;10.00;99.90
65692;DHT22;52411;52.716;6.696;2023-02-19T00:33:52;10.00;99.90
65692;DHT22;52411;52.716;6.696;2023-02-19T00:36:18;10.10;99.90
65692;DHT22;52411;52.716;6.696;2023-02-19T00:38:44;10.10;99.90
65692;DHT22;52411;52.716;6.696;2023-02-19T00:41:12;10.10;99.90
65692;DHT22;52411;52.716;6.696;2023-02-19T00:44:02;10.00;99.90
65692;DHT22;52411;52.716;6.696;2023-02-19T00:46:31;10.10;99.90
65692;DHT22;52411;52.716;6.696;2023-02-19T00:48:57;10.10;99.90
65692;DHT22;52411;52.716;6.696;2023-02-19T00:51:26;10.10;99.90
65692;DHT22;52411;52.716;6.696;2023-02-19T00:53:52;10.10;99.90
65692;DHT22;52411;52.716;6.696;2023-02-19T00:56:18;10.10;99.90
65692;DHT22;52411;52.716;6.696;2023-02-19T00:58:43;10.10;99.90
65692;DHT22;52411;52.716;6.696;2023-02-19T01:01:09;10.10;99.90
65692;DHT22;52411;52.716;6.696;2023-02-19T01:03:36;10.00;99.90
65692;DHT22;52411;52.716;6.696;2023-02-19T01:06:03;10.00;99.90
65692;DHT22;52411;52.716;6.696;2023-02-19T01:08:29;10.00;99.90
65692;DHT22;52411;52.716;6.696;2023-02-19T01:10:56;10.00;99.90
65692;DHT22;52411;52.716;6.696;2023-02-19T01:13:21;10.00;99.90
65692;DHT22;52411;52.716;6.696;2023-02-19T01:15:47;10.00;99.90
65692;DHT22;52411;52.716;6.696;2023-02-19T01:18:13;10.00;99.90
65692;DHT22;52411;52.716;6.696;2023-02-19T01:20:40;9.90;99.90
65692;DHT22;52411;52.716;6.696;2023-02-19T01:23:07;9.90;99.90
65692;DHT22;52411;52.716;6.696;2023-02-19T01:25:32;9.90;99.90
65692;DHT22;52411;52.716;6.696;2023-02-19T01:27:58;9.90;99.90
65692;DHT22;52411;52.716;6.696;2023-02-19T01:30:23;9.90;99.90
65692;DHT22;52411;52.716;6.696;2023-02-19T01:32:49;9.90;99.90
65692;DHT22;52411;52.716;6.696;2023-02-19T01:35:15;9.90;99.90
65692;DHT22;52411;52.716;6.696;2023-02-19T01:37:40;9.90;99.90
65692;DHT22;52411;52.716;6.696;2023-02-19T01:40:06;9.80;99.90
65692;DHT22;52411;52.716;6.696;2023-02-19T01:42:32;9.80;99.90
65692;DHT22;52411;52.716;6.696;2023-02-19T01:45:20;9.80;99.90
65692;DHT22;52411;52.716;6.696;2023-02-19T01:47:53;9.80;99.90
65692;DHT22;52411;52.716;6.696;2023-02-19T01:50:19;9.80;99.90
65692;DHT22;52411;52.716;6.696;2023-02-19T01:52:45;9.80;99.90
65692;DHT22;52411;52.716;6.696;2023-02-19T01:55:11;9.70;99.90
65692;DHT22;52411;52.716;6.696;2023-02-19T01:57:41;9.70;99.90
65692;DHT22;52411;52.716;6.696;2023-02-19T02:00:12;9.70;99.90
65692;DHT22;52411;52.716;6.696;2023-02-19T02:02:40;9.70;99.90
65692;DHT22;52411;52.716;6.696;2023-02-19T02:05:09;9.70;99.90
65692;DHT22;52411;52.716;6.696;2023-02-19T02:07:35;9.80;99.90
65692;DHT22;52411;52.716;6.696;2023-02-19T02:10:19;9.70;99.90
65692;DHT22;52411;52.716;6.696;2023-02-19T02:12:49;9.70;99.90
65692;DHT22;52411;52.716;6.696;2023-02-19T02:15:16;9.70;99.90
65692;DHT22;52411;52.716;6.696;2023-02-19T02:22:48;9.80;99.90
65692;DHT22;52411;52.716;6.696;2023-02-19T02:25:47;9.70;99.90
65692;DHT22;52411;52.716;6.696;2023-02-19T02:28:26;9.70;99.90
65692;DHT22;52411;52.716;6.696;2023-02-19T02:30:55;9.70;99.90
65692;DHT22;52411;52.716;6.696;2023-02-19T02:33:35;9.70;99.90
65692;DHT22;52411;52.716;6.696;2023-02-19T02:36:09;9.70;99.90
65692;DHT22;52411;52.716;6.696;2023-02-19T02:38:39;9.70;99.90
65692;DHT22;52411;52.716;6.696;2023-02-19T02:41:06;9.70;99.90
65692;DHT22;52411;52.716;6.696;2023-02-19T02:43:32;9.70;99.90
65692;DHT22;52411;52.716;6.696;2023-02-19T02:45:58;9.70;99.90
65692;DHT22;52411;52.716;6.696;2023-02-19T02:48:33;9.70;99.90
65692;DHT22;52411;52.716;6.696;2023-02-19T02:51:11;9.70;99.90
65692;DHT22;52411;52.716;6.696;2023-02-19T02:53:55;9.60;99.90
65692;DHT22;52411;52.716;6.696;2023-02-19T02:56:40;9.60;99.90
65692;DHT22;52411;52.716;6.696;2023-02-19T02:59:09;9.60;99.90
65692;DHT22;52411;52.716;6.696;2023-02-19T03:01:48;9.60;99.90
65692;DHT22;52411;52.716;6.696;2023-02-19T03:05:05;9.60;99.90
65692;DHT22;52411;52.716;6.696;2023-02-19T03:08:05;9.50;99.90
65692;DHT22;52411;52.716;6.696;2023-02-19T03:10:41;9.50;99.90
65692;DHT22;52411;52.716;6.696;2023-02-19T03:13:24;9.50;99.90
65692;DHT22;52411;52.716;6.696;2023-02-19T03:16:17;9.50;99.90
65692;DHT22;52411;52.716;6.696;2023-02-19T03:19:04;9.40;99.90
65692;DHT22;52411;52.716;6.696;2023-02-19T03:24:32;9.30;99.90
65692;DHT22;52411;52.716;6.696;2023-02-19T03:27:20;9.30;99.90
65692;DHT22;52411;52.716;6.696;2023-02-19T03:29:48;9.30;99.90
65692;DHT22;52411;52.716;6.696;2023-02-19T03:32:18;9.30;99.90
65692;DHT22;52411;52.716;6.696;2023-02-19T03:34:51;9.30;99.90
65692;DHT22;52411;52.716;6.696;2023-02-19T03:37:30;9.30;99.90
65692;DHT22;52411;52.716;6.696;2023-02-19T03:39:57;9.30;99.90
65692;DHT22;52411;52.716;6.696;2023-02-19T03:43:14;9.30;99.90
65692;DHT22;52411;52.716;6.696;2023-02-19T03:45:29;9.30;99.90
65692;DHT22;52411;52.716;6.696;2023-02-19T03:48:16;9.30;99.90
65692;DHT22;52411;52.716;6.696;2023-02-19T03:53:42;9.30;99.90
65692;DHT22;52411;52.716;6.696;2023-02-19T03:56:37;9.20;99.90
65692;DHT22;52411;52.716;6.696;2023-02-19T04:02:18;9.20;99.90
65692;DHT22;52411;52.716;6.696;2023-02-19T04:04:54;9.20;99.90
65692;DHT22;52411;52.716;6.696;2023-02-19T04:07:22;9.20;99.90
65692;DHT22;52411;52.716;6.696;2023-02-19T04:09:50;9.20;99.90
65692;DHT22;52411;52.716;6.696;2023-02-19T04:12:16;9.20;99.90
65692;DHT22;52411;52.716;6.696;2023-02-19T04:14:53;9.20;99.90
65692;DHT22;52411;52.716;6.696;2023-02-19T04:17:46;9.20;99.90
65692;DHT22;52411;52.716;6.696;2023-02-19T04:20:13;9.20;99.90
65692;DHT22;52411;52.716;6.696;2023-02-19T04:22:40;9.20;99.90
65692;DHT22;52411;52.716;6.696;2023-02-19T04:25:07;9.20;99.90
65692;DHT22;52411;52.716;6.696;2023-02-19T04:27:37;9.20;99.90
65692;DHT22;52411;52.716;6.696;2023-02-19T04:30:05;9.20;99.90
65692;DHT22;52411;52.716;6.696;2023-02-19T04:32:31;9.20;99.90
65692;DHT22;52411;52.716;6.696;2023-02-19T04:34:57;9.20;99.90
65692;DHT22;52411;52.716;6.696;2023-02-19T04:37:22;9.20;99.90
65692;DHT22;52411;52.716;6.696;2023-02-19T04:39:48;9.10;99.90
65692;DHT22;52411;52.716;6.696;2023-02-19T04:42:13;9.10;99.90
65692;DHT22;52411;52.716;6.696;2023-02-19T04:44:39;9.10;99.90
65692;DHT22;52411;52.716;6.696;2023-02-19T04:47:04;9.10;99.90
65692;DHT22;52411;52.716;6.696;2023-02-19T04:49:30;9.10;99.90
65692;DHT22;52411;52.716;6.696;2023-02-19T04:51:56;9.10;99.90
65692;DHT22;52411;52.716;6.696;2023-02-19T04:54:21;9.10;99.90
65692;DHT22;52411;52.716;6.696;2023-02-19T04:56:47;9.10;99.90
65692;DHT22;52411;52.716;6.696;2023-02-19T04:59:15;9.10;99.90
65692;DHT22;52411;52.716;6.696;2023-02-19T05:01:40;9.00;99.90
65692;DHT22;52411;52.716;6.696;2023-02-19T05:04:06;9.00;99.90
65692;DHT22;52411;52.716;6.696;2023-02-19T05:06:32;9.00;99.90
65692;DHT22;52411;52.716;6.696;2023-02-19T05:08:57;9.00;99.90
65692;DHT22;52411;52.716;6.696;2023-02-19T05:11:23;8.90;99.90
65692;DHT22;52411;52.716;6.696;2023-02-19T05:13:49;8.70;99.90
65692;DHT22;52411;52.716;6.696;2023-02-19T05:16:15;8.60;99.90
65692;DHT22;52411;52.716;6.696;2023-02-19T05:18:42;8.40;99.90
65692;DHT22;52411;52.716;6.696;2023-02-19T05:21:09;8.30;99.90
65692;DHT22;52411;52.716;6.696;2023-02-19T05:23:34;8.30;99.90
65692;DHT22;52411;52.716;6.696;2023-02-19T05:26:16;8.20;99.90
65692;DHT22;52411;52.716;6.696;2023-02-19T05:28:43;8.10;99.90
65692;DHT22;52411;52.716;6.696;2023-02-19T05:31:10;8.00;99.90
65692;DHT22;52411;52.716;6.696;2023-02-19T05:33:36;7.90;99.90
65692;DHT22;52411;52.716;6.696;2023-02-19T05:36:07;7.90;99.90
65692;DHT22;52411;52.716;6.696;2023-02-19T05:38:34;7.80;99.90
65692;DHT22;52411;52.716;6.696;2023-02-19T05:41:21;7.70;99.90
65692;DHT22;52411;52.716;6.696;2023-02-19T05:43:47;7.60;99.90
65692;DHT22;52411;52.716;6.696;2023-02-19T05:46:16;7.50;99.90
65692;DHT22;52411;52.716;6.696;2023-02-19T05:48:42;7.40;99.90
65692;DHT22;52411;52.716;6.696;2023-02-19T05:51:12;7.40;99.90
65692;DHT22;52411;52.716;6.696;2023-02-19T05:53:38;7.40;99.90
65692;DHT22;52411;52.716;6.696;2023-02-19T05:58:41;7.20;99.90
65692;DHT22;52411;52.716;6.696;2023-02-19T06:01:15;7.20;99.90
65692;DHT22;52411;52.716;6.696;2023-02-19T06:03:40;7.20;99.90
65692;DHT22;52411;52.716;6.696;2023-02-19T06:06:06;7.10;99.90
65692;DHT22;52411;52.716;6.696;2023-02-19T06:08:32;7.10;99.90
65692;DHT22;52411;52.716;6.696;2023-02-19T06:10:57;7.10;99.90
65692;DHT22;52411;52.716;6.696;2023-02-19T06:13:23;7.00;99.90
65692;DHT22;52411;52.716;6.696;2023-02-19T06:15:48;7.00;99.90
65692;DHT22;52411;52.716;6.696;2023-02-19T06:18:14;7.00;99.90
65692;DHT22;52411;52.716;6.696;2023-02-19T06:20:40;6.90;99.90
65692;DHT22;52411;52.716;6.696;2023-02-19T06:23:05;6.90;99.90
65692;DHT22;52411;52.716;6.696;2023-02-19T06:25:31;6.90;99.90
65692;DHT22;52411;52.716;6.696;2023-02-19T06:27:56;6.90;99.90
65692;DHT22;52411;52.716;6.696;2023-02-19T06:30:22;6.90;99.90
65692;DHT22;52411;52.716;6.696;2023-02-19T06:32:55;6.90;99.90
65692;DHT22;52411;52.716;6.696;2023-02-19T06:35:24;6.90;99.90
65692;DHT22;52411;52.716;6.696;2023-02-19T06:37:49;6.90;99.90
65692;DHT22;52411;52.716;6.696;2023-02-19T06:40:15;6.90;99.90
65692;DHT22;52411;52.716;6.696;2023-02-19T06:42:41;6.90;99.90
65692;DHT22;52411;52.716;6.696;2023-02-19T06:45:07;6.80;99.90
65692;DHT22;52411;52.716;6.696;2023-02-19T06:47:32;6.80;99.90
65692;DHT22;52411;52.716;6.696;2023-02-19T06:49:58;6.80;99.90
65692;DHT22;52411;52.716;6.696;2023-02-19T06:52:25;6.80;99.90
65692;DHT22;52411;52.716;6.696;2023-02-19T06:54:51;6.80;99.90
65692;DHT22;52411;52.716;6.696;2023-02-19T06:57:17;6.70;99.90
65692;DHT22;52411;52.716;6.696;2023-02-19T06:59:43;6.70;99.90
65692;DHT22;52411;52.716;6.696;2023-02-19T07:02:12;6.70;99.90
65692;DHT22;52411;52.716;6.696;2023-02-19T07:04:38;6.70;99.90
65692;DHT22;52411;52.716;6.696;2023-02-19T07:07:04;6.70;99.90
65692;DHT22;52411;52.716;6.696;2023-02-19T07:09:30;6.60;99.90
65692;DHT22;52411;52.716;6.696;2023-02-19T07:11:55;6.60;99.90
65692;DHT22;52411;52.716;6.696;2023-02-19T07:14:21;6.60;99.90
65692;DHT22;52411;52.716;6.696;2023-02-19T07:16:47;6.50;99.90
65692;DHT22;52411;52.716;6.696;2023-02-19T07:19:14;6.50;99.90
65692;DHT22;52411;52.716;6.696;2023-02-19T07:21:40;6.50;99.90
65692;DHT22;52411;52.716;6.696;2023-02-19T07:24:08;6.50;99.90
65692;DHT22;52411;52.716;6.696;2023-02-19T07:26:34;6.50;99.90
65692;DHT22;52411;52.716;6.696;2023-02-19T07:29:01;6.40;99.90
65692;DHT22;52411;52.716;6.696;2023-02-19T07:31:27;6.40;99.90
65692;DHT22;52411;52.716;6.696;2023-02-19T07:33:53;6.40;99.90
65692;DHT22;52411;52.716;6.696;2023-02-19T07:36:21;6.40;99.90
65692;DHT22;52411;52.716;6.696;2023-02-19T07:38:51;6.40;99.90
65692;DHT22;52411;52.716;6.696;2023-02-19T07:41:17;6.40;99.90
65692;DHT22;52411;52.716;6.696;2023-02-19T07:43:42;6.40;99.90
65692;DHT22;52411;52.716;6.696;2023-02-19T07:46:10;6.40;99.90
65692;DHT22;52411;52.716;6.696;2023-02-19T07:48:37;6.50;99.90
65692;DHT22;52411;52.716;6.696;2023-02-19T07:51:05;6.50;99.90
65692;DHT22;52411;52.716;6.696;2023-02-19T07:53:32;6.50;99.90
65692;DHT22;52411;52.716;6.696;2023-02-19T07:56:03;6.50;99.90
65692;DHT22;52411;52.716;6.696;2023-02-19T07:58:30;6.50;99.90
65692;DHT22;52411;52.716;6.696;2023-02-19T08:00:56;6.50;99.90
65692;DHT22;52411;52.716;6.696;2023-02-19T08:03:22;6.60;99.90
65692;DHT22;52411;52.716;6.696;2023-02-19T08:05:47;6.60;99.90
65692;DHT22;52411;52.716;6.696;2023-02-19T08:08:16;6.70;99.90
65692;DHT22;52411;52.716;6.696;2023-02-19T08:10:41;6.80;99.90
65692;DHT22;52411;52.716;6.696;2023-02-19T08:13:27;6.90;99.90
65692;DHT22;52411;52.716;6.696;2023-02-19T08:18:26;6.80;99.90
65692;DHT22;52411;52.716;6.696;2023-02-19T08:20:53;6.70;99.90
65692;DHT22;52411;52.716;6.696;2023-02-19T08:23:19;6.70;99.90
65692;DHT22;52411;52.716;6.696;2023-02-19T08:25:45;6.70;99.90
65692;DHT22;52411;52.716;6.696;2023-02-19T08:28:12;6.70;99.90
65692;DHT22;52411;52.716;6.696;2023-02-19T08:30:39;6.70;99.90
65692;DHT22;52411;52.716;6.696;2023-02-19T08:33:06;6.70;99.90
65692;DHT22;52411;52.716;6.696;2023-02-19T08:35:35;6.80;99.90
65692;DHT22;52411;52.716;6.696;2023-02-19T08:38:01;6.80;99.90
65692;DHT22;52411;52.716;6.696;2023-02-19T08:40:27;6.80;99.90
65692;DHT22;52411;52.716;6.696;2023-02-19T08:42:53;6.80;99.90
65692;DHT22;52411;52.716;6.696;2023-02-19T08:45:18;7.00;99.90
65692;DHT22;52411;52.716;6.696;2023-02-19T08:47:44;7.00;99.90
65692;DHT22;52411;52.716;6.696;2023-02-19T08:50:10;7.10;99.90
65692;DHT22;52411;52.716;6.696;2023-02-19T08:52:36;7.20;99.90
65692;DHT22;52411;52.716;6.696;2023-02-19T08:55:03;7.30;99.90
65692;DHT22;52411;52.716;6.696;2023-02-19T08:57:29;7.30;99.90
65692;DHT22;52411;52.716;6.696;2023-02-19T08:59:55;7.40;99.90
65692;DHT22;52411;52.716;6.696;2023-02-19T09:02:24;7.40;99.90
65692;DHT22;52411;52.716;6.696;2023-02-19T09:04:50;7.40;99.90
65692;DHT22;52411;52.716;6.696;2023-02-19T09:07:16;7.50;99.90
65692;DHT22;52411;52.716;6.696;2023-02-19T09:09:42;7.60;99.90
65692;DHT22;52411;52.716;6.696;2023-02-19T09:12:09;7.60;99.90
65692;DHT22;52411;52.716;6.696;2023-02-19T09:14:35;7.70;99.90
65692;DHT22;52411;52.716;6.696;2023-02-19T09:17:02;7.80;99.90
65692;DHT22;52411;52.716;6.696;2023-02-19T09:19:28;7.80;99.90
65692;DHT22;52411;52.716;6.696;2023-02-19T09:21:54;7.80;99.90
65692;DHT22;52411;52.716;6.696;2023-02-19T09:24:21;7.70;99.90
65692;DHT22;52411;52.716;6.696;2023-02-19T09:26:53;7.70;99.90
65692;DHT22;52411;52.716;6.696;2023-02-19T09:29:20;7.70;99.90
65692;DHT22;52411;52.716;6.696;2023-02-19T09:31:46;7.70;99.90
65692;DHT22;52411;52.716;6.696;2023-02-19T09:34:18;7.70;99.90
65692;DHT22;52411;52.716;6.696;2023-02-19T09:36:44;7.80;99.90
65692;DHT22;52411;52.716;6.696;2023-02-19T09:39:12;7.90;99.90
65692;DHT22;52411;52.716;6.696;2023-02-19T09:41:44;7.80;99.90
65692;DHT22;52411;52.716;6.696;2023-02-19T09:44:12;7.80;99.90
65692;DHT22;52411;52.716;6.696;2023-02-19T09:46:46;7.80;99.90
65692;DHT22;52411;52.716;6.696;2023-02-19T09:49:27;7.70;99.90
65692;DHT22;52411;52.716;6.696;2023-02-19T09:52:05;7.70;99.90
65692;DHT22;52411;52.716;6.696;2023-02-19T09:54:33;7.80;99.90
65692;DHT22;52411;52.716;6.696;2023-02-19T09:57:01;7.80;99.90
65692;DHT22;52411;52.716;6.696;2023-02-19T10:04:41;7.70;99.90
65692;DHT22;52411;52.716;6.696;2023-02-19T10:07:38;7.70;99.90
65692;DHT22;52411;52.716;6.696;2023-02-19T10:12:50;7.70;99.90
65692;DHT22;52411;52.716;6.696;2023-02-19T10:15:18;7.70;99.90
65692;DHT22;52411;52.716;6.696;2023-02-19T10:17:45;7.80;99.90
65692;DHT22;52411;52.716;6.696;2023-02-19T10:20:15;7.80;99.90
65692;DHT22;52411;52.716;6.696;2023-02-19T10:22:42;7.90;99.90
65692;DHT22;52411;52.716;6.696;2023-02-19T10:25:13;7.90;99.90
65692;DHT22;52411;52.716;6.696;2023-02-19T10:27:39;8.00;99.90
65692;DHT22;52411;52.716;6.696;2023-02-19T10:30:05;8.10;99.90
65692;DHT22;52411;52.716;6.696;2023-02-19T10:32:31;8.10;99.90
65692;DHT22;52411;52.716;6.696;2023-02-19T10:35:14;8.20;99.90
65692;DHT22;52411;52.716;6.696;2023-02-19T10:37:46;8.30;99.90
65692;DHT22;52411;52.716;6.696;2023-02-19T10:40:18;8.60;99.90
65692;DHT22;52411;52.716;6.696;2023-02-19T10:42:47;8.80;99.90
65692;DHT22;52411;52.716;6.696;2023-02-19T10:45:37;8.90;99.90
65692;DHT22;52411;52.716;6.696;2023-02-19T10:48:05;8.90;99.90
65692;DHT22;52411;52.716;6.696;2023-02-19T10:50:35;8.90;99.90
65692;DHT22;52411;52.716;6.696;2023-02-19T10:53:20;8.80;99.90
65692;DHT22;52411;52.716;6.696;2023-02-19T10:55:47;8.70;99.90
65692;DHT22;52411;52.716;6.696;2023-02-19T10:58:22;8.70;99.90
65692;DHT22;52411;52.716;6.696;2023-02-19T11:01:18;8.70;99.90
65692;DHT22;52411;52.716;6.696;2023-02-19T11:03:45;8.80;99.90
65692;DHT22;52411;52.716;6.696;2023-02-19T11:06:13;8.90;99.90
65692;DHT22;52411;52.716;6.696;2023-02-19T11:11:22;9.00;99.90
65692;DHT22;52411;52.716;6.696;2023-02-19T11:13:48;9.00;99.90
65692;DHT22;52411;52.716;6.696;2023-02-19T11:16:14;8.90;99.90
65692;DHT22;52411;52.716;6.696;2023-02-19T11:18:39;8.90;99.90
65692;DHT22;52411;52.716;6.696;2023-02-19T11:21:23;8.90;99.90
65692;DHT22;52411;52.716;6.696;2023-02-19T11:23:50;8.90;99.90
65692;DHT22;52411;52.716;6.696;2023-02-19T11:26:19;9.00;99.90
65692;DHT22;52411;52.716;6.696;2023-02-19T11:28:58;9.10;99.90
65692;DHT22;52411;52.716;6.696;2023-02-19T11:31:29;9.20;99.90
65692;DHT22;52411;52.716;6.696;2023-02-19T11:34:27;9.20;99.90
65692;DHT22;52411;52.716;6.696;2023-02-19T11:37:16;9.40;99.90
65692;DHT22;52411;52.716;6.696;2023-02-19T11:39:44;9.60;99.90
65692;DHT22;52411;52.716;6.696;2023-02-19T11:50:29;9.70;99.90
65692;DHT22;52411;52.716;6.696;2023-02-19T12:12:25;9.60;99.90
65692;DHT22;52411;52.716;6.696;2023-02-19T12:15:04;9.60;99.90
65692;DHT22;52411;52.716;6.696;2023-02-19T12:17:47;9.80;99.90
65692;DHT22;52411;52.716;6.696;2023-02-19T12:26:07;10.00;99.90
65692;DHT22;52411;52.716;6.696;2023-02-19T12:28:55;10.10;99.90
65692;DHT22;52411;52.716;6.696;2023-02-19T12:45:35;10.50;99.90
65692;DHT22;52411;52.716;6.696;2023-02-19T12:56:09;9.80;99.90
65692;DHT22;52411;52.716;6.696;2023-02-19T12:58:57;9.70;99.90
65692;DHT22;52411;52.716;6.696;2023-02-19T13:01:31;9.70;99.90
65692;DHT22;52411;52.716;6.696;2023-02-19T13:06:40;9.60;99.90
65692;DHT22;52411;52.716;6.696;2023-02-19T13:09:14;9.60;99.90
65692;DHT22;52411;52.716;6.696;2023-02-19T13:11:52;9.60;99.90
65692;DHT22;52411;52.716;6.696;2023-02-19T13:15:01;9.50;99.90
65692;DHT22;52411;52.716;6.696;2023-02-19T13:17:52;9.50;99.90
65692;DHT22;52411;52.716;6.696;2023-02-19T13:20:27;9.50;99.90
65692;DHT22;52411;52.716;6.696;2023-02-19T13:31:45;9.60;99.90
65692;DHT22;52411;52.716;6.696;2023-02-19T13:37:01;9.60;99.90
65692;DHT22;52411;52.716;6.696;2023-02-19T13:39:27;9.50;99.90
65692;DHT22;52411;52.716;6.696;2023-02-19T13:41:55;9.40;99.90
65692;DHT22;52411;52.716;6.696;2023-02-19T13:44:27;9.30;99.90
65692;DHT22;52411;52.716;6.696;2023-02-19T13:46:53;9.40;99.90
65692;DHT22;52411;52.716;6.696;2023-02-19T13:54:43;9.40;99.90
65692;DHT22;52411;52.716;6.696;2023-02-19T13:59:47;9.40;99.90
65692;DHT22;52411;52.716;6.696;2023-02-19T14:14:44;9.40;99.90
65692;DHT22;52411;52.716;6.696;2023-02-19T14:19:58;9.30;99.90
65692;DHT22;52411;52.716;6.696;2023-02-19T14:28:02;9.20;99.90
65692;DHT22;52411;52.716;6.696;2023-02-19T14:30:32;9.30;99.90
65692;DHT22;52411;52.716;6.696;2023-02-19T14:33:00;9.30;99.90
65692;DHT22;52411;52.716;6.696;2023-02-19T14:35:44;9.30;99.90
65692;DHT22;52411;52.716;6.696;2023-02-19T14:38:25;9.40;99.90
65692;DHT22;52411;52.716;6.696;2023-02-19T14:40:52;9.40;99.90
65692;DHT22;52411;52.716;6.696;2023-02-19T14:43:19;9.40;99.90
65692;DHT22;52411;52.716;6.696;2023-02-19T14:45:50;9.40;99.90
65692;DHT22;52411;52.716;6.696;2023-02-19T14:48:24;9.50;99.90
65692;DHT22;52411;52.716;6.696;2023-02-19T14:50:56;9.40;99.90
65692;DHT22;52411;52.716;6.696;2023-02-19T14:53:23;9.40;99.90
65692;DHT22;52411;52.716;6.696;2023-02-19T14:55:50;9.30;99.90
65692;DHT22;52411;52.716;6.696;2023-02-19T14:58:28;9.30;99.90
65692;DHT22;52411;52.716;6.696;2023-02-19T15:00:55;9.20;99.90
65692;DHT22;52411;52.716;6.696;2023-02-19T15:05:54;9.20;99.90
65692;DHT22;52411;52.716;6.696;2023-02-19T15:08:26;9.10;99.90
65692;DHT22;52411;52.716;6.696;2023-02-19T15:10:54;9.10;99.90
65692;DHT22;52411;52.716;6.696;2023-02-19T15:13:24;9.10;99.90
65692;DHT22;52411;52.716;6.696;2023-02-19T15:15:51;9.10;99.90
65692;DHT22;52411;52.716;6.696;2023-02-19T15:18:24;9.10;99.90
65692;DHT22;52411;52.716;6.696;2023-02-19T15:20:51;9.00;99.90
65692;DHT22;52411;52.716;6.696;2023-02-19T15:23:22;9.00;99.90
65692;DHT22;52411;52.716;6.696;2023-02-19T15:25:49;9.00;99.90
65692;DHT22;52411;52.716;6.696;2023-02-19T15:33:22;8.90;99.90
65692;DHT22;52411;52.716;6.696;2023-02-19T15:35:50;8.90;99.90
65692;DHT22;52411;52.716;6.696;2023-02-19T15:38:16;8.90;99.90
65692;DHT22;52411;52.716;6.696;2023-02-19T15:40:45;8.90;99.90
65692;DHT22;52411;52.716;6.696;2023-02-19T15:43:38;9.00;99.90
65692;DHT22;52411;52.716;6.696;2023-02-19T15:46:24;9.00;99.90
65692;DHT22;52411;52.716;6.696;2023-02-19T15:51:23;9.00;99.90
65692;DHT22;52411;52.716;6.696;2023-02-19T15:53:53;8.90;99.90
65692;DHT22;52411;52.716;6.696;2023-02-19T15:56:31;8.90;99.90
65692;DHT22;52411;52.716;6.696;2023-02-19T16:01:29;8.60;99.90
65692;DHT22;52411;52.716;6.696;2023-02-19T16:03:56;8.50;99.90
65692;DHT22;52411;52.716;6.696;2023-02-19T16:06:24;8.40;99.90
65692;DHT22;52411;52.716;6.696;2023-02-19T16:11:33;8.20;99.90
65692;DHT22;52411;52.716;6.696;2023-02-19T16:16:57;8.10;99.90
65692;DHT22;52411;52.716;6.696;2023-02-19T16:19:28;8.20;99.90
65692;DHT22;52411;52.716;6.696;2023-02-19T16:21:55;8.20;99.90
65692;DHT22;52411;52.716;6.696;2023-02-19T16:24:36;8.20;99.90
65692;DHT22;52411;52.716;6.696;2023-02-19T16:27:05;8.20;99.90
65692;DHT22;52411;52.716;6.696;2023-02-19T16:29:32;8.10;99.90
65692;DHT22;52411;52.716;6.696;2023-02-19T16:31:59;8.00;99.90
65692;DHT22;52411;52.716;6.696;2023-02-19T16:34:46;8.00;99.90
65692;DHT22;52411;52.716;6.696;2023-02-19T16:37:35;7.90;99.90
65692;DHT22;52411;52.716;6.696;2023-02-19T16:45:23;7.70;99.90
65692;DHT22;52411;52.716;6.696;2023-02-19T16:47:49;7.60;99.90
65692;DHT22;52411;52.716;6.696;2023-02-19T16:50:23;7.60;99.90
65692;DHT22;52411;52.716;6.696;2023-02-19T16:55:19;7.70;99.90
65692;DHT22;52411;52.716;6.696;2023-02-19T16:57:45;7.70;99.90
65692;DHT22;52411;52.716;6.696;2023-02-19T17:00:25;7.80;99.90
65692;DHT22;52411;52.716;6.696;2023-02-19T17:02:57;7.80;99.90
65692;DHT22;52411;52.716;6.696;2023-02-19T17:05:25;7.80;99.90
65692;DHT22;52411;52.716;6.696;2023-02-19T17:07:52;7.80;99.90
65692;DHT22;52411;52.716;6.696;2023-02-19T17:10:25;7.80;99.90
65692;DHT22;52411;52.716;6.696;2023-02-19T17:12:53;7.80;99.90
65692;DHT22;52411;52.716;6.696;2023-02-19T17:15:19;7.80;99.90
65692;DHT22;52411;52.716;6.696;2023-02-19T17:17:45;7.70;99.90
65692;DHT22;52411;52.716;6.696;2023-02-19T17:20:24;7.70;99.90
65692;DHT22;52411;52.716;6.696;2023-02-19T17:22:52;7.70;99.90
65692;DHT22;52411;52.716;6.696;2023-02-19T17:25:18;7.70;99.90
65692;DHT22;52411;52.716;6.696;2023-02-19T17:27:43;7.70;99.90
65692;DHT22;52411;52.716;6.696;2023-02-19T17:30:12;7.70;99.90
65692;DHT22;52411;52.716;6.696;2023-02-19T17:32:39;7.60;99.90
65692;DHT22;52411;52.716;6.696;2023-02-19T17:35:05;7.60;99.90
65692;DHT22;52411;52.716;6.696;2023-02-19T17:37:31;7.60;99.90
65692;DHT22;52411;52.716;6.696;2023-02-19T17:39:56;7.60;99.90
65692;DHT22;52411;52.716;6.696;2023-02-19T17:42:22;7.60;99.90
65692;DHT22;52411;52.716;6.696;2023-02-19T17:44:48;7.50;99.90
65692;DHT22;52411;52.716;6.696;2023-02-19T17:47:15;7.50;99.90
65692;DHT22;52411;52.716;6.696;2023-02-19T17:49:42;7.50;99.90
65692;DHT22;52411;52.716;6.696;2023-02-19T17:52:07;7.40;99.90
65692;DHT22;52411;52.716;6.696;2023-02-19T17:54:33;7.40;99.90
65692;DHT22;52411;52.716;6.696;2023-02-19T17:56:58;7.50;99.90
65692;DHT22;52411;52.716;6.696;2023-02-19T17:59:24;7.40;99.90
65692;DHT22;52411;52.716;6.696;2023-02-19T18:01:50;7.40;99.90
65692;DHT22;52411;52.716;6.696;2023-02-19T18:04:15;7.40;99.90
65692;DHT22;52411;52.716;6.696;2023-02-19T18:06:41;7.40;99.90
65692;DHT22;52411;52.716;6.696;2023-02-19T18:09:07;7.40;99.90
65692;DHT22;52411;52.716;6.696;2023-02-19T18:11:32;7.30;99.90
65692;DHT22;52411;52.716;6.696;2023-02-19T18:13:58;7.20;99.90
65692;DHT22;52411;52.716;6.696;2023-02-19T18:16:24;7.20;99.90
65692;DHT22;52411;52.716;6.696;2023-02-19T18:18:49;7.10;99.90
65692;DHT22;52411;52.716;6.696;2023-02-19T18:21:15;7.10;99.90
65692;DHT22;52411;52.716;6.696;2023-02-19T18:23:41;7.10;99.90
65692;DHT22;52411;52.716;6.696;2023-02-19T18:26:08;7.00;99.90
65692;DHT22;52411;52.716;6.696;2023-02-19T18:28:35;6.90;99.90
65692;DHT22;52411;52.716;6.696;2023-02-19T18:31:02;6.90;99.90
65692;DHT22;52411;52.716;6.696;2023-02-19T18:33:27;6.80;99.90
65692;DHT22;52411;52.716;6.696;2023-02-19T18:35:53;6.70;99.90
65692;DHT22;52411;52.716;6.696;2023-02-19T18:38:19;6.70;99.90
65692;DHT22;52411;52.716;6.696;2023-02-19T18:40:45;6.70;99.90
65692;DHT22;52411;52.716;6.696;2023-02-19T18:43:11;6.70;99.90